sensor_id;sensor_type;location;lat;lon;timestamp;P1;durP1;ratioP1;P2;durP2;ratioP2
76758;SDS011;65701;45.588;5.186;2023-10-19T04:22:38;0.00;;;0.00;;
76758;SDS011;65701;45.588;5.186;2023-10-19T04:25:04;0.00;;;0.00;;
76758;SDS011;65701;45.588;5.186;2023-10-19T04:27:31;0.25;;;0.25;;
76758;SDS011;65701;45.588;5.186;2023-10-19T04:30:00;0.00;;;0.00;;
76758;SDS011;65701;45.588;5.186;2023-10-19T04:32:27;0.00;;;0.00;;
76758;SDS011;65701;45.588;5.186;2023-10-19T04:34:52;0.00;;;0.00;;
76758;SDS011;65701;45.588;5.186;2023-10-19T04:37:19;0.00;;;0.00;;
76758;SDS011;65701;45.588;5.186;2023-10-19T04:39:49;0.00;;;0.00;;
76758;SDS011;65701;45.588;5.186;2023-10-19T04:42:15;0.00;;;0.00;;
76758;SDS011;65701;45.588;5.186;2023-10-19T04:44:40;0.00;;;0.00;;
76758;SDS011;65701;45.588;5.186;2023-10-19T04:47:06;0.00;;;0.00;;
76758;SDS011;65701;45.588;5.186;2023-10-19T04:49:31;0.00;;;0.00;;
76758;SDS011;65701;45.588;5.186;2023-10-19T04:51:57;0.00;;;0.00;;
76758;SDS011;65701;45.588;5.186;2023-10-19T04:54:24;0.00;;;0.00;;
76758;SDS011;65701;45.588;5.186;2023-10-19T04:56:49;0.00;;;0.00;;
76758;SDS011;65701;45.588;5.186;2023-10-19T04:59:18;0.00;;;0.00;;
76758;SDS011;65701;45.588;5.186;2023-10-19T05:01:43;0.00;;;0.00;;
76758;SDS011;65701;45.588;5.186;2023-10-19T05:04:08;0.00;;;0.00;;
76758;SDS011;65701;45.588;5.186;2023-10-19T05:06:34;0.00;;;0.00;;
76758;SDS011;65701;45.588;5.186;2023-10-19T05:08:59;0.00;;;0.00;;
76758;SDS011;65701;45.588;5.186;2023-10-19T05:11:28;0.00;;;0.00;;
76758;SDS011;65701;45.588;5.186;2023-10-19T05:13:53;1.75;;;0.00;;
76758;SDS011;65701;45.588;5.186;2023-10-19T05:16:19;0.00;;;0.00;;
76758;SDS011;65701;45.588;5.186;2023-10-19T05:18:44;0.00;;;0.00;;
76758;SDS011;65701;45.588;5.186;2023-10-19T05:21:10;0.50;;;0.00;;
76758;SDS011;65701;45.588;5.186;2023-10-19T05:23:37;1.00;;;1.00;;
76758;SDS011;65701;45.588;5.186;2023-10-19T05:26:03;0.00;;;0.00;;
76758;SDS011;65701;45.588;5.186;2023-10-19T05:28:31;0.00;;;0.00;;
76758;SDS011;65701;45.588;5.186;2023-10-19T05:30:57;0.00;;;0.00;;
76758;SDS011;65701;45.588;5.186;2023-10-19T05:33:24;0.00;;;0.00;;
76758;SDS011;65701;45.588;5.186;2023-10-19T05:35:51;0.00;;;0.00;;
76758;SDS011;65701;45.588;5.186;2023-10-19T05:38:17;0.00;;;0.00;;
76758;SDS011;65701;45.588;5.186;2023-10-19T05:40:44;0.00;;;0.00;;
76758;SDS011;65701;45.588;5.186;2023-10-19T05:43:10;0.00;;;0.00;;
76758;SDS011;65701;45.588;5.186;2023-10-19T05:45:36;0.00;;;0.00;;
76758;SDS011;65701;45.588;5.186;2023-10-19T05:48:02;0.00;;;0.00;;
76758;SDS011;65701;45.588;5.186;2023-10-19T05:50:31;0.00;;;0.00;;
76758;SDS011;65701;45.588;5.186;2023-10-19T05:52:57;0.00;;;0.00;;
76758;SDS011;65701;45.588;5.186;2023-10-19T05:55:23;0.00;;;0.00;;
76758;SDS011;65701;45.588;5.186;2023-10-19T05:57:48;0.50;;;0.50;;
76758;SDS011;65701;45.588;5.186;2023-10-19T06:00:14;4.00;;;4.00;;
76758;SDS011;65701;45.588;5.186;2023-10-19T06:02:47;18.75;;;9.50;;
76758;SDS011;65701;45.588;5.186;2023-10-19T06:05:14;15.50;;;9.00;;
76758;SDS011;65701;45.588;5.186;2023-10-19T06:07:44;41.75;;;18.00;;
76758;SDS011;65701;45.588;5.186;2023-10-19T06:10:11;10.00;;;8.75;;
76758;SDS011;65701;45.588;5.186;2023-10-19T06:12:41;9.00;;;9.00;;
76758;SDS011;65701;45.588;5.186;2023-10-19T06:15:08;12.75;;;10.00;;
76758;SDS011;65701;45.588;5.186;2023-10-19T06:17:36;15.50;;;11.00;;
76758;SDS011;65701;45.588;5.186;2023-10-19T06:20:09;2.25;;;2.25;;
76758;SDS011;65701;45.588;5.186;2023-10-19T06:22:55;3.50;;;3.50;;
76758;SDS011;65701;45.588;5.186;2023-10-19T06:25:29;4.00;;;4.00;;
76758;SDS011;65701;45.588;5.186;2023-10-19T06:27:54;3.00;;;3.00;;
76758;SDS011;65701;45.588;5.186;2023-10-19T06:30:22;3.50;;;1.75;;
76758;SDS011;65701;45.588;5.186;2023-10-19T06:32:55;0.75;;;0.75;;
76758;SDS011;65701;45.588;5.186;2023-10-19T06:35:28;3.00;;;2.25;;
76758;SDS011;65701;45.588;5.186;2023-10-19T06:37:56;6.25;;;2.00;;
76758;SDS011;65701;45.588;5.186;2023-10-19T06:40:24;6.50;;;2.75;;
76758;SDS011;65701;45.588;5.186;2023-10-19T06:42:51;2.75;;;2.75;;
76758;SDS011;65701;45.588;5.186;2023-10-19T06:45:20;6.25;;;3.75;;
76758;SDS011;65701;45.588;5.186;2023-10-19T06:47:47;6.25;;;6.25;;
76758;SDS011;65701;45.588;5.186;2023-10-19T06:50:14;5.00;;;4.75;;
76758;SDS011;65701;45.588;5.186;2023-10-19T06:52:42;4.00;;;3.75;;
76758;SDS011;65701;45.588;5.186;2023-10-19T06:55:08;6.25;;;6.25;;
76758;SDS011;65701;45.588;5.186;2023-10-19T06:57:46;3.75;;;3.75;;
76758;SDS011;65701;45.588;5.186;2023-10-19T07:00:13;0.75;;;0.75;;
76758;SDS011;65701;45.588;5.186;2023-10-19T07:02:44;0.50;;;0.50;;
76758;SDS011;65701;45.588;5.186;2023-10-19T07:05:13;1.00;;;1.00;;
76758;SDS011;65701;45.588;5.186;2023-10-19T07:07:43;0.00;;;0.00;;
76758;SDS011;65701;45.588;5.186;2023-10-19T07:10:10;0.00;;;0.00;;
76758;SDS011;65701;45.588;5.186;2023-10-19T07:12:40;0.00;;;0.00;;
76758;SDS011;65701;45.588;5.186;2023-10-19T07:15:08;0.00;;;0.00;;
76758;SDS011;65701;45.588;5.186;2023-10-19T07:17:38;0.00;;;0.00;;
76758;SDS011;65701;45.588;5.186;2023-10-19T07:20:07;0.00;;;0.00;;
76758;SDS011;65701;45.588;5.186;2023-10-19T07:22:47;0.00;;;0.00;;
76758;SDS011;65701;45.588;5.186;2023-10-19T07:25:12;0.00;;;0.00;;
76758;SDS011;65701;45.588;5.186;2023-10-19T07:27:38;0.00;;;0.00;;
76758;SDS011;65701;45.588;5.186;2023-10-19T07:30:06;0.00;;;0.00;;
76758;SDS011;65701;45.588;5.186;2023-10-19T07:32:34;0.00;;;0.00;;
76758;SDS011;65701;45.588;5.186;2023-10-19T07:35:00;0.00;;;0.00;;
76758;SDS011;65701;45.588;5.186;2023-10-19T07:37:25;0.00;;;0.00;;
76758;SDS011;65701;45.588;5.186;2023-10-19T07:39:52;0.00;;;0.00;;
76758;SDS011;65701;45.588;5.186;2023-10-19T07:42:23;0.00;;;0.00;;
76758;SDS011;65701;45.588;5.186;2023-10-19T07:44:50;0.00;;;0.00;;
76758;SDS011;65701;45.588;5.186;2023-10-19T07:47:16;1.50;;;0.75;;
76758;SDS011;65701;45.588;5.186;2023-10-19T07:49:41;3.25;;;2.50;;
76758;SDS011;65701;45.588;5.186;2023-10-19T07:52:08;1.50;;;0.00;;
76758;SDS011;65701;45.588;5.186;2023-10-19T07:54:39;0.50;;;0.50;;
76758;SDS011;65701;45.588;5.186;2023-10-19T07:57:05;0.50;;;0.50;;
76758;SDS011;65701;45.588;5.186;2023-10-19T07:59:34;0.00;;;0.00;;
76758;SDS011;65701;45.588;5.186;2023-10-19T08:02:00;0.50;;;0.50;;
76758;SDS011;65701;45.588;5.186;2023-10-19T08:04:29;0.00;;;0.00;;
76758;SDS011;65701;45.588;5.186;2023-10-19T08:06:56;0.00;;;0.00;;
76758;SDS011;65701;45.588;5.186;2023-10-19T08:09:22;0.00;;;0.00;;
76758;SDS011;65701;45.588;5.186;2023-10-19T08:11:49;0.00;;;0.00;;
76758;SDS011;65701;45.588;5.186;2023-10-19T08:14:20;0.50;;;0.00;;
76758;SDS011;65701;45.588;5.186;2023-10-19T08:16:52;0.75;;;0.75;;
76758;SDS011;65701;45.588;5.186;2023-10-19T08:19:18;0.50;;;0.50;;
76758;SDS011;65701;45.588;5.186;2023-10-19T08:21:44;0.25;;;0.25;;
76758;SDS011;65701;45.588;5.186;2023-10-19T08:24:10;0.25;;;0.00;;
76758;SDS011;65701;45.588;5.186;2023-10-19T08:26:43;0.25;;;0.25;;
76758;SDS011;65701;45.588;5.186;2023-10-19T08:29:11;0.00;;;0.00;;
76758;SDS011;65701;45.588;5.186;2023-10-19T08:31:40;0.50;;;0.50;;
76758;SDS011;65701;45.588;5.186;2023-10-19T08:34:06;0.00;;;0.00;;
76758;SDS011;65701;45.588;5.186;2023-10-19T08:36:36;0.75;;;0.00;;
76758;SDS011;65701;45.588;5.186;2023-10-19T08:39:05;0.00;;;0.00;;
76758;SDS011;65701;45.588;5.186;2023-10-19T08:41:35;0.00;;;0.00;;
76758;SDS011;65701;45.588;5.186;2023-10-19T08:44:04;0.00;;;0.00;;
76758;SDS011;65701;45.588;5.186;2023-10-19T08:46:39;0.00;;;0.00;;
76758;SDS011;65701;45.588;5.186;2023-10-19T08:49:13;0.25;;;0.00;;
76758;SDS011;65701;45.588;5.186;2023-10-19T08:51:43;0.00;;;0.00;;
76758;SDS011;65701;45.588;5.186;2023-10-19T08:54:10;0.00;;;0.00;;
76758;SDS011;65701;45.588;5.186;2023-10-19T08:56:38;0.00;;;0.00;;
76758;SDS011;65701;45.588;5.186;2023-10-19T08:59:04;0.00;;;0.00;;
76758;SDS011;65701;45.588;5.186;2023-10-19T09:01:31;0.25;;;0.25;;
76758;SDS011;65701;45.588;5.186;2023-10-19T09:03:59;1.00;;;0.00;;
76758;SDS011;65701;45.588;5.186;2023-10-19T09:06:25;0.00;;;0.00;;
76758;SDS011;65701;45.588;5.186;2023-10-19T09:08:54;0.25;;;0.25;;
76758;SDS011;65701;45.588;5.186;2023-10-19T09:11:20;0.00;;;0.00;;
76758;SDS011;65701;45.588;5.186;2023-10-19T09:13:47;0.00;;;0.00;;
76758;SDS011;65701;45.588;5.186;2023-10-19T09:16:19;0.00;;;0.00;;
76758;SDS011;65701;45.588;5.186;2023-10-19T09:18:48;0.00;;;0.00;;
76758;SDS011;65701;45.588;5.186;2023-10-19T09:21:18;0.00;;;0.00;;
76758;SDS011;65701;45.588;5.186;2023-10-19T09:23:54;0.00;;;0.00;;
76758;SDS011;65701;45.588;5.186;2023-10-19T09:26:21;0.00;;;0.00;;
76758;SDS011;65701;45.588;5.186;2023-10-19T09:28:51;0.00;;;0.00;;
76758;SDS011;65701;45.588;5.186;2023-10-19T09:31:19;1.00;;;1.00;;
76758;SDS011;65701;45.588;5.186;2023-10-19T09:33:46;1.00;;;1.00;;
76758;SDS011;65701;45.588;5.186;2023-10-19T09:36:14;0.75;;;0.75;;
76758;SDS011;65701;45.588;5.186;2023-10-19T09:38:44;1.25;;;0.75;;
76758;SDS011;65701;45.588;5.186;2023-10-19T09:41:13;1.50;;;1.00;;
76758;SDS011;65701;45.588;5.186;2023-10-19T09:43:46;1.00;;;1.00;;
76758;SDS011;65701;45.588;5.186;2023-10-19T09:46:22;0.50;;;0.50;;
76758;SDS011;65701;45.588;5.186;2023-10-19T09:48:53;0.00;;;0.00;;
76758;SDS011;65701;45.588;5.186;2023-10-19T09:51:19;0.00;;;0.00;;
76758;SDS011;65701;45.588;5.186;2023-10-19T09:53:57;0.00;;;0.00;;
76758;SDS011;65701;45.588;5.186;2023-10-19T09:56:34;1.25;;;1.00;;
76758;SDS011;65701;45.588;5.186;2023-10-19T09:59:06;2.00;;;2.00;;
76758;SDS011;65701;45.588;5.186;2023-10-19T10:04:38;3.00;;;3.00;;
76758;SDS011;65701;45.588;5.186;2023-10-19T10:07:05;2.75;;;2.75;;
76758;SDS011;65701;45.588;5.186;2023-10-19T10:09:36;2.75;;;2.75;;
76758;SDS011;65701;45.588;5.186;2023-10-19T10:12:42;4.00;;;4.00;;
76758;SDS011;65701;45.588;5.186;2023-10-19T10:15:02;3.00;;;3.00;;
76758;SDS011;65701;45.588;5.186;2023-10-19T10:17:37;3.00;;;3.00;;
76758;SDS011;65701;45.588;5.186;2023-10-19T10:22:42;3.00;;;3.00;;
76758;SDS011;65701;45.588;5.186;2023-10-19T10:25:08;3.00;;;3.00;;
76758;SDS011;65701;45.588;5.186;2023-10-19T10:27:53;4.00;;;4.00;;
76758;SDS011;65701;45.588;5.186;2023-10-19T10:30:20;7.50;;;5.00;;
76758;SDS011;65701;45.588;5.186;2023-10-19T10:32:47;4.75;;;4.75;;
76758;SDS011;65701;45.588;5.186;2023-10-19T10:38:05;8.75;;;7.00;;
76758;SDS011;65701;45.588;5.186;2023-10-19T10:43:09;7.25;;;7.00;;
76758;SDS011;65701;45.588;5.186;2023-10-19T10:45:35;7.00;;;7.00;;
76758;SDS011;65701;45.588;5.186;2023-10-19T10:48:01;7.00;;;5.00;;
76758;SDS011;65701;45.588;5.186;2023-10-19T10:50:27;8.50;;;7.50;;
76758;SDS011;65701;45.588;5.186;2023-10-19T10:52:53;6.00;;;6.00;;
76758;SDS011;65701;45.588;5.186;2023-10-19T10:55:23;9.00;;;8.25;;
76758;SDS011;65701;45.588;5.186;2023-10-19T10:57:52;5.00;;;4.00;;
76758;SDS011;65701;45.588;5.186;2023-10-19T11:00:19;6.25;;;6.25;;
76758;SDS011;65701;45.588;5.186;2023-10-19T11:02:46;3.00;;;3.00;;
76758;SDS011;65701;45.588;5.186;2023-10-19T11:05:13;4.50;;;2.75;;
76758;SDS011;65701;45.588;5.186;2023-10-19T11:07:40;2.75;;;2.75;;
76758;SDS011;65701;45.588;5.186;2023-10-19T11:10:26;3.00;;;2.00;;
76758;SDS011;65701;45.588;5.186;2023-10-19T11:13:02;3.75;;;3.75;;
76758;SDS011;65701;45.588;5.186;2023-10-19T11:15:35;3.00;;;2.75;;
76758;SDS011;65701;45.588;5.186;2023-10-19T11:18:07;3.75;;;2.50;;
76758;SDS011;65701;45.588;5.186;2023-10-19T11:20:33;3.25;;;3.25;;
76758;SDS011;65701;45.588;5.186;2023-10-19T11:22:59;2.00;;;2.00;;
76758;SDS011;65701;45.588;5.186;2023-10-19T11:25:28;3.25;;;3.25;;
76758;SDS011;65701;45.588;5.186;2023-10-19T11:27:55;2.50;;;2.50;;
76758;SDS011;65701;45.588;5.186;2023-10-19T11:30:22;3.00;;;3.00;;
76758;SDS011;65701;45.588;5.186;2023-10-19T11:32:49;3.00;;;3.00;;
76758;SDS011;65701;45.588;5.186;2023-10-19T11:35:18;5.00;;;4.25;;
76758;SDS011;65701;45.588;5.186;2023-10-19T11:37:45;2.25;;;2.25;;
76758;SDS011;65701;45.588;5.186;2023-10-19T11:40:14;3.50;;;3.50;;
76758;SDS011;65701;45.588;5.186;2023-10-19T11:42:40;3.50;;;2.00;;
76758;SDS011;65701;45.588;5.186;2023-10-19T11:45:06;2.25;;;2.25;;
76758;SDS011;65701;45.588;5.186;2023-10-19T11:47:32;3.00;;;3.00;;
76758;SDS011;65701;45.588;5.186;2023-10-19T11:49:58;2.25;;;2.25;;
76758;SDS011;65701;45.588;5.186;2023-10-19T11:52:23;4.75;;;3.25;;
76758;SDS011;65701;45.588;5.186;2023-10-19T11:54:49;4.00;;;4.00;;
76758;SDS011;65701;45.588;5.186;2023-10-19T11:57:14;3.25;;;3.25;;
76758;SDS011;65701;45.588;5.186;2023-10-19T11:59:40;2.25;;;2.25;;
76758;SDS011;65701;45.588;5.186;2023-10-19T12:02:06;2.00;;;2.00;;
76758;SDS011;65701;45.588;5.186;2023-10-19T12:04:32;2.25;;;2.25;;
76758;SDS011;65701;45.588;5.186;2023-10-19T12:07:01;2.75;;;2.75;;
76758;SDS011;65701;45.588;5.186;2023-10-19T12:09:28;2.00;;;2.00;;
76758;SDS011;65701;45.588;5.186;2023-10-19T12:11:53;3.00;;;3.00;;
76758;SDS011;65701;45.588;5.186;2023-10-19T12:14:20;4.25;;;3.00;;
76758;SDS011;65701;45.588;5.186;2023-10-19T12:16:46;3.75;;;3.75;;
76758;SDS011;65701;45.588;5.186;2023-10-19T12:19:12;4.25;;;3.00;;
76758;SDS011;65701;45.588;5.186;2023-10-19T12:21:39;2.75;;;2.75;;
76758;SDS011;65701;45.588;5.186;2023-10-19T12:24:06;2.00;;;2.00;;
76758;SDS011;65701;45.588;5.186;2023-10-19T12:26:33;2.25;;;2.25;;
76758;SDS011;65701;45.588;5.186;2023-10-19T12:28:58;4.50;;;3.50;;
76758;SDS011;65701;45.588;5.186;2023-10-19T12:31:24;3.00;;;3.00;;
76758;SDS011;65701;45.588;5.186;2023-10-19T12:33:50;2.25;;;2.00;;
76758;SDS011;65701;45.588;5.186;2023-10-19T12:36:16;2.75;;;2.75;;
76758;SDS011;65701;45.588;5.186;2023-10-19T12:38:53;2.50;;;2.50;;
76758;SDS011;65701;45.588;5.186;2023-10-19T12:41:22;2.25;;;2.25;;
76758;SDS011;65701;45.588;5.186;2023-10-19T12:43:49;2.25;;;2.25;;
76758;SDS011;65701;45.588;5.186;2023-10-19T12:46:22;2.25;;;2.25;;
76758;SDS011;65701;45.588;5.186;2023-10-19T12:48:52;3.50;;;2.50;;
76758;SDS011;65701;45.588;5.186;2023-10-19T12:51:20;3.00;;;1.75;;
76758;SDS011;65701;45.588;5.186;2023-10-19T12:53:52;3.25;;;2.75;;
76758;SDS011;65701;45.588;5.186;2023-10-19T12:56:19;3.00;;;3.00;;
76758;SDS011;65701;45.588;5.186;2023-10-19T12:58:45;4.50;;;2.75;;
76758;SDS011;65701;45.588;5.186;2023-10-19T13:01:10;2.50;;;2.50;;
76758;SDS011;65701;45.588;5.186;2023-10-19T13:03:44;2.75;;;2.75;;
76758;SDS011;65701;45.588;5.186;2023-10-19T13:06:11;3.00;;;3.00;;
76758;SDS011;65701;45.588;5.186;2023-10-19T13:08:38;2.00;;;2.00;;
76758;SDS011;65701;45.588;5.186;2023-10-19T13:11:05;2.00;;;2.00;;
76758;SDS011;65701;45.588;5.186;2023-10-19T13:13:32;4.00;;;2.00;;
76758;SDS011;65701;45.588;5.186;2023-10-19T13:15:57;1.00;;;1.00;;
76758;SDS011;65701;45.588;5.186;2023-10-19T13:18:24;2.25;;;1.00;;
76758;SDS011;65701;45.588;5.186;2023-10-19T13:20:53;1.50;;;1.50;;
76758;SDS011;65701;45.588;5.186;2023-10-19T13:23:19;2.00;;;1.75;;
76758;SDS011;65701;45.588;5.186;2023-10-19T13:25:48;2.00;;;2.00;;
76758;SDS011;65701;45.588;5.186;2023-10-19T13:28:15;1.00;;;1.00;;
76758;SDS011;65701;45.588;5.186;2023-10-19T13:30:49;2.00;;;2.00;;
76758;SDS011;65701;45.588;5.186;2023-10-19T13:33:16;2.75;;;2.50;;
76758;SDS011;65701;45.588;5.186;2023-10-19T13:35:43;1.75;;;1.75;;
76758;SDS011;65701;45.588;5.186;2023-10-19T13:38:10;1.75;;;1.75;;
76758;SDS011;65701;45.588;5.186;2023-10-19T13:40:40;3.50;;;3.50;;
76758;SDS011;65701;45.588;5.186;2023-10-19T13:43:06;1.25;;;1.25;;
76758;SDS011;65701;45.588;5.186;2023-10-19T13:45:33;2.00;;;2.00;;
76758;SDS011;65701;45.588;5.186;2023-10-19T13:48:04;1.00;;;1.00;;
76758;SDS011;65701;45.588;5.186;2023-10-19T13:50:30;2.00;;;2.00;;
76758;SDS011;65701;45.588;5.186;2023-10-19T13:52:57;1.50;;;1.50;;
76758;SDS011;65701;45.588;5.186;2023-10-19T13:55:25;2.00;;;2.00;;
76758;SDS011;65701;45.588;5.186;2023-10-19T13:57:51;2.75;;;2.25;;
76758;SDS011;65701;45.588;5.186;2023-10-19T14:00:17;2.00;;;2.00;;
76758;SDS011;65701;45.588;5.186;2023-10-19T14:02:55;4.00;;;2.00;;
76758;SDS011;65701;45.588;5.186;2023-10-19T14:05:22;2.75;;;2.25;;
76758;SDS011;65701;45.588;5.186;2023-10-19T14:07:49;3.00;;;1.50;;
76758;SDS011;65701;45.588;5.186;2023-10-19T14:10:16;3.00;;;3.00;;
76758;SDS011;65701;45.588;5.186;2023-10-19T14:12:44;2.00;;;2.00;;
76758;SDS011;65701;45.588;5.186;2023-10-19T14:15:14;2.00;;;2.00;;
76758;SDS011;65701;45.588;5.186;2023-10-19T14:17:42;1.75;;;1.75;;
76758;SDS011;65701;45.588;5.186;2023-10-19T14:20:09;1.50;;;1.50;;
76758;SDS011;65701;45.588;5.186;2023-10-19T14:22:43;3.00;;;2.00;;
76758;SDS011;65701;45.588;5.186;2023-10-19T14:25:11;3.00;;;3.00;;
76758;SDS011;65701;45.588;5.186;2023-10-19T14:27:45;3.50;;;2.75;;
76758;SDS011;65701;45.588;5.186;2023-10-19T14:30:12;3.25;;;2.00;;
76758;SDS011;65701;45.588;5.186;2023-10-19T14:32:43;2.00;;;2.00;;
76758;SDS011;65701;45.588;5.186;2023-10-19T14:35:13;1.50;;;1.50;;
76758;SDS011;65701;45.588;5.186;2023-10-19T14:37:43;2.00;;;2.00;;
76758;SDS011;65701;45.588;5.186;2023-10-19T14:40:13;1.50;;;1.50;;
76758;SDS011;65701;45.588;5.186;2023-10-19T14:42:41;3.00;;;3.00;;
76758;SDS011;65701;45.588;5.186;2023-10-19T14:45:11;2.75;;;2.25;;
76758;SDS011;65701;45.588;5.186;2023-10-19T14:47:41;2.75;;;1.50;;
76758;SDS011;65701;45.588;5.186;2023-10-19T14:52:38;2.00;;;1.25;;
76758;SDS011;65701;45.588;5.186;2023-10-19T14:55:07;2.25;;;2.00;;
76758;SDS011;65701;45.588;5.186;2023-10-19T14:57:39;4.25;;;2.00;;
76758;SDS011;65701;45.588;5.186;2023-10-19T15:00:09;2.50;;;2.50;;
76758;SDS011;65701;45.588;5.186;2023-10-19T15:02:43;0.50;;;0.50;;
76758;SDS011;65701;45.588;5.186;2023-10-19T15:05:10;1.25;;;1.25;;
76758;SDS011;65701;45.588;5.186;2023-10-19T15:07:48;3.00;;;3.00;;
76758;SDS011;65701;45.588;5.186;2023-10-19T15:10:17;1.50;;;1.00;;
76758;SDS011;65701;45.588;5.186;2023-10-19T15:12:44;1.75;;;1.75;;
76758;SDS011;65701;45.588;5.186;2023-10-19T15:15:10;1.75;;;1.00;;
76758;SDS011;65701;45.588;5.186;2023-10-19T15:17:39;3.00;;;1.75;;
76758;SDS011;65701;45.588;5.186;2023-10-19T15:20:06;1.50;;;1.50;;
76758;SDS011;65701;45.588;5.186;2023-10-19T15:22:34;3.00;;;3.00;;
76758;SDS011;65701;45.588;5.186;2023-10-19T15:24:59;1.00;;;1.00;;
76758;SDS011;65701;45.588;5.186;2023-10-19T15:27:25;2.00;;;2.00;;
76758;SDS011;65701;45.588;5.186;2023-10-19T15:29:50;2.00;;;2.00;;
76758;SDS011;65701;45.588;5.186;2023-10-19T15:32:16;3.00;;;1.00;;
76758;SDS011;65701;45.588;5.186;2023-10-19T15:34:42;2.00;;;2.00;;
76758;SDS011;65701;45.588;5.186;2023-10-19T15:37:08;2.00;;;2.00;;
76758;SDS011;65701;45.588;5.186;2023-10-19T15:39:34;5.00;;;2.00;;
76758;SDS011;65701;45.588;5.186;2023-10-19T15:42:00;2.00;;;2.00;;
76758;SDS011;65701;45.588;5.186;2023-10-19T15:44:25;2.00;;;2.00;;
76758;SDS011;65701;45.588;5.186;2023-10-19T15:46:51;1.25;;;1.25;;
76758;SDS011;65701;45.588;5.186;2023-10-19T15:49:17;1.25;;;1.25;;
76758;SDS011;65701;45.588;5.186;2023-10-19T15:51:44;1.25;;;1.25;;
76758;SDS011;65701;45.588;5.186;2023-10-19T15:54:10;1.25;;;1.25;;
76758;SDS011;65701;45.588;5.186;2023-10-19T15:56:36;3.00;;;1.00;;
76758;SDS011;65701;45.588;5.186;2023-10-19T15:59:01;2.25;;;2.25;;
76758;SDS011;65701;45.588;5.186;2023-10-19T16:01:27;2.25;;;1.25;;
76758;SDS011;65701;45.588;5.186;2023-10-19T16:03:54;1.00;;;1.00;;
76758;SDS011;65701;45.588;5.186;2023-10-19T16:06:19;0.00;;;0.00;;
76758;SDS011;65701;45.588;5.186;2023-10-19T16:08:45;1.00;;;1.00;;
76758;SDS011;65701;45.588;5.186;2023-10-19T16:11:10;1.75;;;1.00;;
76758;SDS011;65701;45.588;5.186;2023-10-19T16:13:36;1.00;;;0.00;;
76758;SDS011;65701;45.588;5.186;2023-10-19T16:16:02;1.00;;;1.00;;
76758;SDS011;65701;45.588;5.186;2023-10-19T16:18:28;0.00;;;0.00;;
76758;SDS011;65701;45.588;5.186;2023-10-19T16:20:55;0.25;;;0.25;;
76758;SDS011;65701;45.588;5.186;2023-10-19T16:23:20;1.50;;;1.50;;
76758;SDS011;65701;45.588;5.186;2023-10-19T16:25:46;1.00;;;1.00;;
76758;SDS011;65701;45.588;5.186;2023-10-19T16:28:11;3.00;;;0.25;;
76758;SDS011;65701;45.588;5.186;2023-10-19T16:30:37;2.00;;;2.00;;
76758;SDS011;65701;45.588;5.186;2023-10-19T16:33:03;2.75;;;1.00;;
76758;SDS011;65701;45.588;5.186;2023-10-19T16:35:30;0.25;;;0.25;;
76758;SDS011;65701;45.588;5.186;2023-10-19T16:37:55;2.50;;;1.00;;
76758;SDS011;65701;45.588;5.186;2023-10-19T16:40:21;1.00;;;1.00;;
76758;SDS011;65701;45.588;5.186;2023-10-19T16:42:46;1.00;;;1.00;;
76758;SDS011;65701;45.588;5.186;2023-10-19T16:45:12;0.50;;;0.50;;
76758;SDS011;65701;45.588;5.186;2023-10-19T16:47:38;0.00;;;0.00;;
76758;SDS011;65701;45.588;5.186;2023-10-19T16:50:06;1.00;;;1.00;;
76758;SDS011;65701;45.588;5.186;2023-10-19T16:52:36;1.00;;;1.00;;
76758;SDS011;65701;45.588;5.186;2023-10-19T16:55:03;1.00;;;1.00;;
76758;SDS011;65701;45.588;5.186;2023-10-19T16:57:31;0.50;;;0.50;;
76758;SDS011;65701;45.588;5.186;2023-10-19T16:59:58;1.00;;;1.00;;
76758;SDS011;65701;45.588;5.186;2023-10-19T17:02:24;1.00;;;0.00;;
76758;SDS011;65701;45.588;5.186;2023-10-19T17:04:50;1.00;;;1.00;;
76758;SDS011;65701;45.588;5.186;2023-10-19T17:07:17;0.50;;;0.50;;
76758;SDS011;65701;45.588;5.186;2023-10-19T17:09:43;0.50;;;0.50;;
76758;SDS011;65701;45.588;5.186;2023-10-19T17:12:10;0.75;;;0.75;;
76758;SDS011;65701;45.588;5.186;2023-10-19T17:14:36;3.00;;;1.00;;
76758;SDS011;65701;45.588;5.186;2023-10-19T17:17:02;1.50;;;1.25;;
76758;SDS011;65701;45.588;5.186;2023-10-19T17:19:28;3.00;;;2.00;;
76758;SDS011;65701;45.588;5.186;2023-10-19T17:21:55;0.00;;;0.00;;
76758;SDS011;65701;45.588;5.186;2023-10-19T17:24:22;1.00;;;1.00;;
76758;SDS011;65701;45.588;5.186;2023-10-19T17:26:48;1.50;;;0.75;;
76758;SDS011;65701;45.588;5.186;2023-10-19T17:29:14;1.00;;;1.00;;
76758;SDS011;65701;45.588;5.186;2023-10-19T17:31:39;1.25;;;1.25;;
76758;SDS011;65701;45.588;5.186;2023-10-19T17:34:04;1.00;;;1.00;;
76758;SDS011;65701;45.588;5.186;2023-10-19T17:36:32;0.75;;;0.75;;
76758;SDS011;65701;45.588;5.186;2023-10-19T17:38:57;2.00;;;2.00;;
76758;SDS011;65701;45.588;5.186;2023-10-19T17:41:23;0.00;;;0.00;;
76758;SDS011;65701;45.588;5.186;2023-10-19T17:43:49;1.25;;;1.00;;
76758;SDS011;65701;45.588;5.186;2023-10-19T17:46:16;0.75;;;0.00;;
76758;SDS011;65701;45.588;5.186;2023-10-19T17:48:41;2.25;;;1.00;;
76758;SDS011;65701;45.588;5.186;2023-10-19T17:51:12;1.00;;;1.00;;
76758;SDS011;65701;45.588;5.186;2023-10-19T17:53:39;2.00;;;2.00;;
76758;SDS011;65701;45.588;5.186;2023-10-19T17:56:05;0.75;;;0.50;;
76758;SDS011;65701;45.588;5.186;2023-10-19T17:58:31;1.25;;;1.25;;
76758;SDS011;65701;45.588;5.186;2023-10-19T18:00:57;2.25;;;1.00;;
76758;SDS011;65701;45.588;5.186;2023-10-19T18:03:24;1.00;;;1.00;;
76758;SDS011;65701;45.588;5.186;2023-10-19T18:05:50;1.25;;;0.00;;
76758;SDS011;65701;45.588;5.186;2023-10-19T18:08:16;1.00;;;1.00;;
76758;SDS011;65701;45.588;5.186;2023-10-19T18:10:41;2.75;;;0.00;;
76758;SDS011;65701;45.588;5.186;2023-10-19T18:13:07;1.00;;;0.00;;
76758;SDS011;65701;45.588;5.186;2023-10-19T18:15:36;0.50;;;0.00;;
76758;SDS011;65701;45.588;5.186;2023-10-19T18:18:03;0.00;;;0.00;;
76758;SDS011;65701;45.588;5.186;2023-10-19T18:20:30;2.00;;;0.00;;
76758;SDS011;65701;45.588;5.186;2023-10-19T18:22:56;0.00;;;0.00;;
76758;SDS011;65701;45.588;5.186;2023-10-19T18:25:21;0.00;;;0.00;;
76758;SDS011;65701;45.588;5.186;2023-10-19T18:27:49;0.00;;;0.00;;
76758;SDS011;65701;45.588;5.186;2023-10-19T18:30:16;0.00;;;0.00;;
76758;SDS011;65701;45.588;5.186;2023-10-19T18:32:41;0.00;;;0.00;;
76758;SDS011;65701;45.588;5.186;2023-10-19T18:35:07;0.75;;;0.75;;
76758;SDS011;65701;45.588;5.186;2023-10-19T18:37:33;0.00;;;0.00;;
76758;SDS011;65701;45.588;5.186;2023-10-19T18:39:59;0.00;;;0.00;;
76758;SDS011;65701;45.588;5.186;2023-10-19T18:42:25;1.00;;;1.00;;
76758;SDS011;65701;45.588;5.186;2023-10-19T18:44:51;1.25;;;0.00;;
76758;SDS011;65701;45.588;5.186;2023-10-19T18:47:18;1.00;;;1.00;;
76758;SDS011;65701;45.588;5.186;2023-10-19T18:49:44;2.00;;;0.75;;
76758;SDS011;65701;45.588;5.186;2023-10-19T18:52:10;0.00;;;0.00;;
76758;SDS011;65701;45.588;5.186;2023-10-19T18:54:35;1.00;;;0.75;;
76758;SDS011;65701;45.588;5.186;2023-10-19T18:57:02;1.00;;;1.00;;
76758;SDS011;65701;45.588;5.186;2023-10-19T18:59:28;2.00;;;1.00;;
76758;SDS011;65701;45.588;5.186;2023-10-19T19:01:54;0.25;;;0.00;;
76758;SDS011;65701;45.588;5.186;2023-10-19T19:04:19;1.25;;;1.25;;
76758;SDS011;65701;45.588;5.186;2023-10-19T19:06:45;3.00;;;1.75;;
76758;SDS011;65701;45.588;5.186;2023-10-19T19:09:11;0.25;;;0.25;;
76758;SDS011;65701;45.588;5.186;2023-10-19T19:11:37;0.50;;;0.50;;
76758;SDS011;65701;45.588;5.186;2023-10-19T19:14:07;0.75;;;0.75;;
76758;SDS011;65701;45.588;5.186;2023-10-19T19:16:33;1.25;;;1.25;;
76758;SDS011;65701;45.588;5.186;2023-10-19T19:18:59;1.00;;;1.00;;
76758;SDS011;65701;45.588;5.186;2023-10-19T19:21:25;1.25;;;1.25;;
76758;SDS011;65701;45.588;5.186;2023-10-19T19:23:51;1.00;;;1.00;;
76758;SDS011;65701;45.588;5.186;2023-10-19T19:26:17;1.00;;;1.00;;